sensor_id;sensor_type;location;lat;lon;timestamp;temperature;humidity
33580;DHT22;19909;43.644;-79.438;2022-10-26T00:02:20;21.80;48.00
33580;DHT22;19909;43.644;-79.438;2022-10-26T00:04:46;21.80;48.10
33580;DHT22;19909;43.644;-79.438;2022-10-26T00:07:13;21.90;48.10
33580;DHT22;19909;43.644;-79.438;2022-10-26T00:09:39;21.80;47.90
33580;DHT22;19909;43.644;-79.438;2022-10-26T00:12:06;21.80;48.00
33580;DHT22;19909;43.644;-79.438;2022-10-26T00:14:32;21.80;48.00
33580;DHT22;19909;43.644;-79.438;2022-10-26T00:16:59;21.80;48.00
33580;DHT22;19909;43.644;-79.438;2022-10-26T00:19:26;21.80;48.10
33580;DHT22;19909;43.644;-79.438;2022-10-26T00:21:52;21.90;48.20
33580;DHT22;19909;43.644;-79.438;2022-10-26T00:24:19;21.80;48.00
33580;DHT22;19909;43.644;-79.438;2022-10-26T00:26:46;21.90;48.00
33580;DHT22;19909;43.644;-79.438;2022-10-26T00:29:12;21.80;48.00
33580;DHT22;19909;43.644;-79.438;2022-10-26T00:31:39;21.80;48.10
33580;DHT22;19909;43.644;-79.438;2022-10-26T00:34:06;21.80;48.20
33580;DHT22;19909;43.644;-79.438;2022-10-26T00:36:34;21.90;48.10
33580;DHT22;19909;43.644;-79.438;2022-10-26T00:39:01;21.90;48.10
33580;DHT22;19909;43.644;-79.438;2022-10-26T00:41:30;21.80;47.90
33580;DHT22;19909;43.644;-79.438;2022-10-26T00:43:58;21.80;48.00
33580;DHT22;19909;43.644;-79.438;2022-10-26T00:46:31;21.80;48.10
33580;DHT22;19909;43.644;-79.438;2022-10-26T00:49:03;21.80;48.10
33580;DHT22;19909;43.644;-79.438;2022-10-26T00:51:39;21.90;48.20
33580;DHT22;19909;43.644;-79.438;2022-10-26T00:54:12;21.80;48.10
33580;DHT22;19909;43.644;-79.438;2022-10-26T00:56:40;21.80;48.00
33580;DHT22;19909;43.644;-79.438;2022-10-26T00:59:09;21.80;48.00
33580;DHT22;19909;43.644;-79.438;2022-10-26T01:01:39;21.80;48.10
33580;DHT22;19909;43.644;-79.438;2022-10-26T01:04:06;21.80;48.40
33580;DHT22;19909;43.644;-79.438;2022-10-26T01:06:34;21.80;48.10
33580;DHT22;19909;43.644;-79.438;2022-10-26T01:09:02;21.80;48.10
33580;DHT22;19909;43.644;-79.438;2022-10-26T01:11:28;21.90;48.10
33580;DHT22;19909;43.644;-79.438;2022-10-26T01:13:56;21.80;48.10
33580;DHT22;19909;43.644;-79.438;2022-10-26T01:22:06;21.90;48.20
33580;DHT22;19909;43.644;-79.438;2022-10-26T01:24:57;21.80;48.10
33580;DHT22;19909;43.644;-79.438;2022-10-26T01:27:35;21.80;48.10
33580;DHT22;19909;43.644;-79.438;2022-10-26T01:36:02;21.80;48.20
33580;DHT22;19909;43.644;-79.438;2022-10-26T01:38:57;21.80;48.20
33580;DHT22;19909;43.644;-79.438;2022-10-26T01:41:36;21.80;48.10
33580;DHT22;19909;43.644;-79.438;2022-10-26T01:44:16;21.80;48.10
33580;DHT22;19909;43.644;-79.438;2022-10-26T01:46:46;21.80;48.20
33580;DHT22;19909;43.644;-79.438;2022-10-26T01:49:16;21.90;48.30
33580;DHT22;19909;43.644;-79.438;2022-10-26T01:51:47;21.80;48.20
33580;DHT22;19909;43.644;-79.438;2022-10-26T01:54:15;21.80;48.10
33580;DHT22;19909;43.644;-79.438;2022-10-26T01:56:45;21.90;48.20
33580;DHT22;19909;43.644;-79.438;2022-10-26T02:00:19;21.80;48.10
33580;DHT22;19909;43.644;-79.438;2022-10-26T02:05:14;21.90;48.40
33580;DHT22;19909;43.644;-79.438;2022-10-26T02:10:27;21.90;48.20
33580;DHT22;19909;43.644;-79.438;2022-10-26T02:18:29;21.90;48.30
33580;DHT22;19909;43.644;-79.438;2022-10-26T02:21:04;21.90;48.30
33580;DHT22;19909;43.644;-79.438;2022-10-26T02:23:34;21.80;48.20
33580;DHT22;19909;43.644;-79.438;2022-10-26T02:26:05;21.90;48.20
33580;DHT22;19909;43.644;-79.438;2022-10-26T02:28:37;21.90;48.20
33580;DHT22;19909;43.644;-79.438;2022-10-26T02:31:06;21.90;48.20
33580;DHT22;19909;43.644;-79.438;2022-10-26T02:33:37;21.80;48.30
33580;DHT22;19909;43.644;-79.438;2022-10-26T02:36:07;21.90;48.40
33580;DHT22;19909;43.644;-79.438;2022-10-26T02:38:35;21.90;48.30
33580;DHT22;19909;43.644;-79.438;2022-10-26T02:41:03;21.90;48.20
33580;DHT22;19909;43.644;-79.438;2022-10-26T02:43:35;21.90;48.20
33580;DHT22;19909;43.644;-79.438;2022-10-26T02:46:09;21.80;48.20
33580;DHT22;19909;43.644;-79.438;2022-10-26T02:48:36;21.90;48.40
33580;DHT22;19909;43.644;-79.438;2022-10-26T02:57:11;21.90;48.30
33580;DHT22;19909;43.644;-79.438;2022-10-26T02:59:42;21.90;48.20
33580;DHT22;19909;43.644;-79.438;2022-10-26T03:02:11;21.90;48.40
33580;DHT22;19909;43.644;-79.438;2022-10-26T03:04:38;21.90;48.40
33580;DHT22;19909;43.644;-79.438;2022-10-26T03:07:05;21.90;48.40
33580;DHT22;19909;43.644;-79.438;2022-10-26T03:09:31;21.90;48.30
33580;DHT22;19909;43.644;-79.438;2022-10-26T03:11:57;21.90;48.20
33580;DHT22;19909;43.644;-79.438;2022-10-26T03:14:24;21.90;48.50
33580;DHT22;19909;43.644;-79.438;2022-10-26T03:16:51;21.80;48.20
33580;DHT22;19909;43.644;-79.438;2022-10-26T03:19:18;21.90;48.40
33580;DHT22;19909;43.644;-79.438;2022-10-26T03:21:44;21.90;48.40
33580;DHT22;19909;43.644;-79.438;2022-10-26T03:24:11;21.90;48.30
33580;DHT22;19909;43.644;-79.438;2022-10-26T03:26:37;21.90;48.20
33580;DHT22;19909;43.644;-79.438;2022-10-26T03:29:03;21.90;48.20
33580;DHT22;19909;43.644;-79.438;2022-10-26T03:31:30;21.90;48.30
33580;DHT22;19909;43.644;-79.438;2022-10-26T03:33:57;21.90;48.40
33580;DHT22;19909;43.644;-79.438;2022-10-26T03:36:23;21.90;48.40
33580;DHT22;19909;43.644;-79.438;2022-10-26T03:38:50;21.90;48.40
33580;DHT22;19909;43.644;-79.438;2022-10-26T03:41:16;21.90;48.30
33580;DHT22;19909;43.644;-79.438;2022-10-26T03:43:43;21.90;48.30
33580;DHT22;19909;43.644;-79.438;2022-10-26T03:46:09;21.90;48.30
33580;DHT22;19909;43.644;-79.438;2022-10-26T03:48:35;21.90;48.40
33580;DHT22;19909;43.644;-79.438;2022-10-26T03:51:02;22.00;48.40
33580;DHT22;19909;43.644;-79.438;2022-10-26T03:53:28;22.00;48.40
33580;DHT22;19909;43.644;-79.438;2022-10-26T03:55:55;21.90;48.20
33580;DHT22;19909;43.644;-79.438;2022-10-26T03:58:21;21.90;48.20
33580;DHT22;19909;43.644;-79.438;2022-10-26T04:00:47;21.90;48.30
33580;DHT22;19909;43.644;-79.438;2022-10-26T04:03:14;21.90;48.40
33580;DHT22;19909;43.644;-79.438;2022-10-26T04:05:40;21.90;48.40
33580;DHT22;19909;43.644;-79.438;2022-10-26T04:08:07;22.00;48.40
33580;DHT22;19909;43.644;-79.438;2022-10-26T04:10:35;21.90;48.30
33580;DHT22;19909;43.644;-79.438;2022-10-26T04:13:02;21.90;48.30
33580;DHT22;19909;43.644;-79.438;2022-10-26T04:15:29;21.90;48.30
33580;DHT22;19909;43.644;-79.438;2022-10-26T04:18:00;21.90;48.40
33580;DHT22;19909;43.644;-79.438;2022-10-26T04:20:29;21.90;48.40
33580;DHT22;19909;43.644;-79.438;2022-10-26T04:23:01;22.00;48.40
33580;DHT22;19909;43.644;-79.438;2022-10-26T04:25:28;21.90;48.30
33580;DHT22;19909;43.644;-79.438;2022-10-26T04:27:55;21.90;48.30
33580;DHT22;19909;43.644;-79.438;2022-10-26T04:30:22;21.90;48.30
33580;DHT22;19909;43.644;-79.438;2022-10-26T04:32:48;22.00;48.40
33580;DHT22;19909;43.644;-79.438;2022-10-26T04:35:15;21.90;48.40
33580;DHT22;19909;43.644;-79.438;2022-10-26T04:37:41;21.90;48.40
33580;DHT22;19909;43.644;-79.438;2022-10-26T04:40:08;22.00;48.30
33580;DHT22;19909;43.644;-79.438;2022-10-26T04:42:43;21.90;48.30
33580;DHT22;19909;43.644;-79.438;2022-10-26T04:45:11;21.90;48.30
33580;DHT22;19909;43.644;-79.438;2022-10-26T04:47:37;21.90;48.40
33580;DHT22;19909;43.644;-79.438;2022-10-26T04:50:05;21.90;48.40
33580;DHT22;19909;43.644;-79.438;2022-10-26T04:52:31;22.00;48.50
33580;DHT22;19909;43.644;-79.438;2022-10-26T04:54:58;21.90;48.40
33580;DHT22;19909;43.644;-79.438;2022-10-26T04:57:27;21.90;48.30
33580;DHT22;19909;43.644;-79.438;2022-10-26T04:59:53;21.90;48.30
33580;DHT22;19909;43.644;-79.438;2022-10-26T05:02:20;21.90;48.40
33580;DHT22;19909;43.644;-79.438;2022-10-26T05:04:50;22.00;48.40
33580;DHT22;19909;43.644;-79.438;2022-10-26T05:07:16;22.00;48.40
33580;DHT22;19909;43.644;-79.438;2022-10-26T05:09:42;22.00;48.40
33580;DHT22;19909;43.644;-79.438;2022-10-26T05:12:09;21.90;48.30
33580;DHT22;19909;43.644;-79.438;2022-10-26T05:14:35;22.00;48.30
33580;DHT22;19909;43.644;-79.438;2022-10-26T05:17:02;21.90;48.40
33580;DHT22;19909;43.644;-79.438;2022-10-26T05:19:29;22.00;48.40
33580;DHT22;19909;43.644;-79.438;2022-10-26T05:21:56;22.00;48.40
33580;DHT22;19909;43.644;-79.438;2022-10-26T05:24:22;22.00;48.40
33580;DHT22;19909;43.644;-79.438;2022-10-26T05:26:48;22.00;48.30
33580;DHT22;19909;43.644;-79.438;2022-10-26T05:29:15;21.90;48.30
33580;DHT22;19909;43.644;-79.438;2022-10-26T05:31:41;21.90;48.30
33580;DHT22;19909;43.644;-79.438;2022-10-26T05:34:08;22.00;48.40
33580;DHT22;19909;43.644;-79.438;2022-10-26T05:36:34;22.00;48.50
33580;DHT22;19909;43.644;-79.438;2022-10-26T05:39:01;22.00;48.40
33580;DHT22;19909;43.644;-79.438;2022-10-26T05:41:27;21.90;48.30
33580;DHT22;19909;43.644;-79.438;2022-10-26T05:43:54;22.00;48.40
33580;DHT22;19909;43.644;-79.438;2022-10-26T05:46:20;21.90;48.40
33580;DHT22;19909;43.644;-79.438;2022-10-26T05:48:47;22.00;48.40
33580;DHT22;19909;43.644;-79.438;2022-10-26T05:51:14;22.00;48.40
33580;DHT22;19909;43.644;-79.438;2022-10-26T05:53:41;22.00;48.40
33580;DHT22;19909;43.644;-79.438;2022-10-26T05:56:19;22.00;48.30
33580;DHT22;19909;43.644;-79.438;2022-10-26T05:58:47;21.90;48.30
33580;DHT22;19909;43.644;-79.438;2022-10-26T06:01:33;21.90;48.40
33580;DHT22;19909;43.644;-79.438;2022-10-26T06:04:10;21.90;48.40
33580;DHT22;19909;43.644;-79.438;2022-10-26T06:06:44;22.00;48.50
33580;DHT22;19909;43.644;-79.438;2022-10-26T06:09:12;21.90;48.30
33580;DHT22;19909;43.644;-79.438;2022-10-26T06:11:40;21.90;48.30
33580;DHT22;19909;43.644;-79.438;2022-10-26T06:14:08;22.00;48.40
33580;DHT22;19909;43.644;-79.438;2022-10-26T06:17:10;22.00;48.40
33580;DHT22;19909;43.644;-79.438;2022-10-26T06:30:34;21.90;48.40
33580;DHT22;19909;43.644;-79.438;2022-10-26T06:33:00;21.90;48.40
33580;DHT22;19909;43.644;-79.438;2022-10-26T06:38:00;21.90;48.40
33580;DHT22;19909;43.644;-79.438;2022-10-26T06:40:31;22.00;48.40
33580;DHT22;19909;43.644;-79.438;2022-10-26T06:42:59;22.00;48.50
33580;DHT22;19909;43.644;-79.438;2022-10-26T06:45:26;21.90;48.40
33580;DHT22;19909;43.644;-79.438;2022-10-26T06:48:07;21.90;48.40
33580;DHT22;19909;43.644;-79.438;2022-10-26T06:53:32;21.90;48.40
33580;DHT22;19909;43.644;-79.438;2022-10-26T06:56:01;22.00;48.50
33580;DHT22;19909;43.644;-79.438;2022-10-26T06:58:32;21.90;48.40
33580;DHT22;19909;43.644;-79.438;2022-10-26T07:01:00;22.00;48.40
33580;DHT22;19909;43.644;-79.438;2022-10-26T07:03:27;22.00;48.50
33580;DHT22;19909;43.644;-79.438;2022-10-26T07:05:53;22.00;48.60
33580;DHT22;19909;43.644;-79.438;2022-10-26T07:08:20;22.00;48.30
33580;DHT22;19909;43.644;-79.438;2022-10-26T07:10:46;22.00;48.40
33580;DHT22;19909;43.644;-79.438;2022-10-26T07:13:13;22.00;48.40
33580;DHT22;19909;43.644;-79.438;2022-10-26T07:15:39;22.00;48.30
33580;DHT22;19909;43.644;-79.438;2022-10-26T07:18:07;22.00;48.50
33580;DHT22;19909;43.644;-79.438;2022-10-26T07:20:39;22.00;48.40
33580;DHT22;19909;43.644;-79.438;2022-10-26T07:23:07;22.00;48.40
33580;DHT22;19909;43.644;-79.438;2022-10-26T07:25:36;22.00;48.40
33580;DHT22;19909;43.644;-79.438;2022-10-26T07:28:09;22.00;48.40
33580;DHT22;19909;43.644;-79.438;2022-10-26T07:30:36;22.00;48.30
33580;DHT22;19909;43.644;-79.438;2022-10-26T07:33:06;22.00;48.40
33580;DHT22;19909;43.644;-79.438;2022-10-26T07:35:33;22.00;48.50
33580;DHT22;19909;43.644;-79.438;2022-10-26T07:38:00;22.00;48.40
33580;DHT22;19909;43.644;-79.438;2022-10-26T07:40:27;22.00;48.40
33580;DHT22;19909;43.644;-79.438;2022-10-26T07:42:59;22.00;48.30
33580;DHT22;19909;43.644;-79.438;2022-10-26T07:45:29;22.00;48.40
33580;DHT22;19909;43.644;-79.438;2022-10-26T07:47:55;22.00;48.40
33580;DHT22;19909;43.644;-79.438;2022-10-26T07:50:23;22.00;48.40
33580;DHT22;19909;43.644;-79.438;2022-10-26T07:52:50;22.00;48.30
33580;DHT22;19909;43.644;-79.438;2022-10-26T07:55:19;22.00;48.30
33580;DHT22;19909;43.644;-79.438;2022-10-26T07:57:46;22.00;48.40
33580;DHT22;19909;43.644;-79.438;2022-10-26T08:00:13;22.00;48.30
33580;DHT22;19909;43.644;-79.438;2022-10-26T08:02:40;22.00;48.40
33580;DHT22;19909;43.644;-79.438;2022-10-26T08:05:06;22.00;48.40
33580;DHT22;19909;43.644;-79.438;2022-10-26T08:07:33;22.00;48.40
33580;DHT22;19909;43.644;-79.438;2022-10-26T08:10:05;22.00;48.40
33580;DHT22;19909;43.644;-79.438;2022-10-26T08:12:32;22.00;48.30
33580;DHT22;19909;43.644;-79.438;2022-10-26T08:14:59;22.00;48.30
33580;DHT22;19909;43.644;-79.438;2022-10-26T08:17:25;22.00;48.30
33580;DHT22;19909;43.644;-79.438;2022-10-26T08:19:53;22.00;48.40
33580;DHT22;19909;43.644;-79.438;2022-10-26T08:22:20;22.00;48.40
33580;DHT22;19909;43.644;-79.438;2022-10-26T08:24:46;22.00;48.40
33580;DHT22;19909;43.644;-79.438;2022-10-26T08:27:13;22.00;48.30
33580;DHT22;19909;43.644;-79.438;2022-10-26T08:29:40;22.00;48.30
33580;DHT22;19909;43.644;-79.438;2022-10-26T08:32:07;22.00;48.30
33580;DHT22;19909;43.644;-79.438;2022-10-26T08:34:34;22.00;48.40
33580;DHT22;19909;43.644;-79.438;2022-10-26T08:37:00;22.00;48.40
33580;DHT22;19909;43.644;-79.438;2022-10-26T08:39:27;22.00;48.30
33580;DHT22;19909;43.644;-79.438;2022-10-26T08:42:12;22.00;48.30
33580;DHT22;19909;43.644;-79.438;2022-10-26T08:44:52;22.00;48.30
33580;DHT22;19909;43.644;-79.438;2022-10-26T08:47:29;22.00;48.40
33580;DHT22;19909;43.644;-79.438;2022-10-26T08:56:00;22.00;48.30
33580;DHT22;19909;43.644;-79.438;2022-10-26T08:58:50;22.00;48.40
33580;DHT22;19909;43.644;-79.438;2022-10-26T09:01:18;22.00;48.40
33580;DHT22;19909;43.644;-79.438;2022-10-26T09:03:45;22.00;48.40
33580;DHT22;19909;43.644;-79.438;2022-10-26T09:09:06;22.00;48.40
33580;DHT22;19909;43.644;-79.438;2022-10-26T09:17:01;22.00;48.40
33580;DHT22;19909;43.644;-79.438;2022-10-26T09:22:43;22.00;48.50
33580;DHT22;19909;43.644;-79.438;2022-10-26T09:25:18;22.00;48.40
33580;DHT22;19909;43.644;-79.438;2022-10-26T09:27:52;22.00;48.40
33580;DHT22;19909;43.644;-79.438;2022-10-26T09:30:21;22.00;48.40
33580;DHT22;19909;43.644;-79.438;2022-10-26T09:32:59;22.00;48.40
33580;DHT22;19909;43.644;-79.438;2022-10-26T09:35:30;22.00;48.50
33580;DHT22;19909;43.644;-79.438;2022-10-26T09:38:29;22.00;48.40
33580;DHT22;19909;43.644;-79.438;2022-10-26T09:41:19;22.00;48.40
33580;DHT22;19909;43.644;-79.438;2022-10-26T09:46:48;22.00;48.40
33580;DHT22;19909;43.644;-79.438;2022-10-26T09:49:13;22.00;48.40
33580;DHT22;19909;43.644;-79.438;2022-10-26T09:51:42;22.00;48.50
33580;DHT22;19909;43.644;-79.438;2022-10-26T09:54:17;22.00;48.40
33580;DHT22;19909;43.644;-79.438;2022-10-26T09:56:50;22.00;48.50
33580;DHT22;19909;43.644;-79.438;2022-10-26T09:59:20;22.00;48.40
33580;DHT22;19909;43.644;-79.438;2022-10-26T10:01:47;22.00;48.40
33580;DHT22;19909;43.644;-79.438;2022-10-26T10:06:46;22.00;48.40
33580;DHT22;19909;43.644;-79.438;2022-10-26T10:09:16;22.00;48.30
33580;DHT22;19909;43.644;-79.438;2022-10-26T10:14:36;22.00;48.40
33580;DHT22;19909;43.644;-79.438;2022-10-26T10:17:21;22.00;48.40
33580;DHT22;19909;43.644;-79.438;2022-10-26T10:19:48;22.00;48.40
33580;DHT22;19909;43.644;-79.438;2022-10-26T10:25:01;22.00;48.40
33580;DHT22;19909;43.644;-79.438;2022-10-26T10:27:29;22.00;48.40
33580;DHT22;19909;43.644;-79.438;2022-10-26T10:30:12;22.00;48.30
33580;DHT22;19909;43.644;-79.438;2022-10-26T10:32:40;22.00;48.40
33580;DHT22;19909;43.644;-79.438;2022-10-26T10:35:23;22.00;48.40
33580;DHT22;19909;43.644;-79.438;2022-10-26T10:37:50;22.00;48.40
33580;DHT22;19909;43.644;-79.438;2022-10-26T10:40:24;22.00;48.50
33580;DHT22;19909;43.644;-79.438;2022-10-26T10:43:03;22.00;48.50
33580;DHT22;19909;43.644;-79.438;2022-10-26T10:45:30;22.00;48.40
33580;DHT22;19909;43.644;-79.438;2022-10-26T10:51:01;22.00;48.50
33580;DHT22;19909;43.644;-79.438;2022-10-26T10:56:04;22.00;48.40
33580;DHT22;19909;43.644;-79.438;2022-10-26T11:01:21;22.00;48.40
33580;DHT22;19909;43.644;-79.438;2022-10-26T11:06:46;22.00;48.50
33580;DHT22;19909;43.644;-79.438;2022-10-26T11:09:20;22.00;48.40
33580;DHT22;19909;43.644;-79.438;2022-10-26T11:11:56;22.00;48.40
33580;DHT22;19909;43.644;-79.438;2022-10-26T11:14:44;22.00;48.40
33580;DHT22;19909;43.644;-79.438;2022-10-26T11:17:26;22.00;48.40
33580;DHT22;19909;43.644;-79.438;2022-10-26T11:20:11;22.00;48.50
33580;DHT22;19909;43.644;-79.438;2022-10-26T11:25:58;22.00;48.50
33580;DHT22;19909;43.644;-79.438;2022-10-26T11:28:48;22.00;48.40
33580;DHT22;19909;43.644;-79.438;2022-10-26T11:31:36;22.00;48.40
33580;DHT22;19909;43.644;-79.438;2022-10-26T11:34:33;22.00;48.40
33580;DHT22;19909;43.644;-79.438;2022-10-26T11:37:50;22.00;48.50
33580;DHT22;19909;43.644;-79.438;2022-10-26T11:45:56;22.00;48.50
33580;DHT22;19909;43.644;-79.438;2022-10-26T11:48:30;22.00;48.50
33580;DHT22;19909;43.644;-79.438;2022-10-26T11:50:59;22.00;48.60
33580;DHT22;19909;43.644;-79.438;2022-10-26T11:53:51;22.00;48.50
33580;DHT22;19909;43.644;-79.438;2022-10-26T11:56:40;22.00;48.40
33580;DHT22;19909;43.644;-79.438;2022-10-26T11:59:34;22.00;48.50
33580;DHT22;19909;43.644;-79.438;2022-10-26T12:02:09;22.00;48.50
33580;DHT22;19909;43.644;-79.438;2022-10-26T12:04:38;22.00;48.50
33580;DHT22;19909;43.644;-79.438;2022-10-26T12:07:12;22.00;48.60
33580;DHT22;19909;43.644;-79.438;2022-10-26T12:09:43;22.00;48.50
33580;DHT22;19909;43.644;-79.438;2022-10-26T12:15:20;22.00;48.50
33580;DHT22;19909;43.644;-79.438;2022-10-26T12:18:00;22.00;48.40
33580;DHT22;19909;43.644;-79.438;2022-10-26T12:20:59;22.00;48.50
33580;DHT22;19909;43.644;-79.438;2022-10-26T12:23:37;22.00;48.40
33580;DHT22;19909;43.644;-79.438;2022-10-26T12:29:12;22.00;48.40
33580;DHT22;19909;43.644;-79.438;2022-10-26T12:31:40;22.00;48.30
33580;DHT22;19909;43.644;-79.438;2022-10-26T12:34:21;22.00;48.40
33580;DHT22;19909;43.644;-79.438;2022-10-26T12:52:51;22.00;48.50
33580;DHT22;19909;43.644;-79.438;2022-10-26T13:00:46;22.00;48.40
33580;DHT22;19909;43.644;-79.438;2022-10-26T13:06:26;22.00;48.50
33580;DHT22;19909;43.644;-79.438;2022-10-26T13:08:57;22.00;48.50
33580;DHT22;19909;43.644;-79.438;2022-10-26T13:11:37;22.00;48.50
33580;DHT22;19909;43.644;-79.438;2022-10-26T13:14:19;22.00;48.40
33580;DHT22;19909;43.644;-79.438;2022-10-26T13:16:47;22.00;48.50
33580;DHT22;19909;43.644;-79.438;2022-10-26T13:21:52;22.00;48.50
33580;DHT22;19909;43.644;-79.438;2022-10-26T13:24:25;22.00;48.50
33580;DHT22;19909;43.644;-79.438;2022-10-26T13:29:32;22.00;48.40
33580;DHT22;19909;43.644;-79.438;2022-10-26T13:32:19;22.00;48.50
33580;DHT22;19909;43.644;-79.438;2022-10-26T13:34:46;22.00;48.50
33580;DHT22;19909;43.644;-79.438;2022-10-26T13:37:23;22.00;48.40
33580;DHT22;19909;43.644;-79.438;2022-10-26T13:39:53;22.00;48.40
33580;DHT22;19909;43.644;-79.438;2022-10-26T13:42:26;22.00;48.40
33580;DHT22;19909;43.644;-79.438;2022-10-26T13:45:08;22.00;48.40
33580;DHT22;19909;43.644;-79.438;2022-10-26T13:47:44;22.10;48.50
33580;DHT22;19909;43.644;-79.438;2022-10-26T13:50:27;22.00;48.50
33580;DHT22;19909;43.644;-79.438;2022-10-26T13:52:58;22.00;48.40
33580;DHT22;19909;43.644;-79.438;2022-10-26T13:55:38;22.00;48.40
33580;DHT22;19909;43.644;-79.438;2022-10-26T13:58:37;22.00;48.40
33580;DHT22;19909;43.644;-79.438;2022-10-26T14:01:19;22.00;48.40
33580;DHT22;19909;43.644;-79.438;2022-10-26T14:03:50;22.10;48.50
33580;DHT22;19909;43.644;-79.438;2022-10-26T14:06:33;22.00;48.50
33580;DHT22;19909;43.644;-79.438;2022-10-26T14:09:06;22.10;48.50
33580;DHT22;19909;43.644;-79.438;2022-10-26T14:11:58;22.00;48.40
33580;DHT22;19909;43.644;-79.438;2022-10-26T14:16:52;22.10;48.50
33580;DHT22;19909;43.644;-79.438;2022-10-26T14:21:58;22.00;48.40
33580;DHT22;19909;43.644;-79.438;2022-10-26T14:24:30;22.00;48.50
33580;DHT22;19909;43.644;-79.438;2022-10-26T14:26:57;22.00;48.40
33580;DHT22;19909;43.644;-79.438;2022-10-26T14:29:26;22.00;48.40
33580;DHT22;19909;43.644;-79.438;2022-10-26T14:31:52;22.00;48.40
33580;DHT22;19909;43.644;-79.438;2022-10-26T14:34:22;22.10;48.50
33580;DHT22;19909;43.644;-79.438;2022-10-26T14:36:56;22.10;48.50
33580;DHT22;19909;43.644;-79.438;2022-10-26T14:39:30;22.10;48.50
33580;DHT22;19909;43.644;-79.438;2022-10-26T14:42:00;22.10;48.40
33580;DHT22;19909;43.644;-79.438;2022-10-26T14:44:28;22.10;48.40
33580;DHT22;19909;43.644;-79.438;2022-10-26T14:46:55;22.10;48.50
33580;DHT22;19909;43.644;-79.438;2022-10-26T14:49:24;22.10;48.50
33580;DHT22;19909;43.644;-79.438;2022-10-26T14:51:59;22.10;48.50
33580;DHT22;19909;43.644;-79.438;2022-10-26T14:54:29;22.10;48.50
33580;DHT22;19909;43.644;-79.438;2022-10-26T14:56:59;22.10;48.40
33580;DHT22;19909;43.644;-79.438;2022-10-26T14:59:33;22.10;48.40
33580;DHT22;19909;43.644;-79.438;2022-10-26T15:02:18;22.10;48.50
33580;DHT22;19909;43.644;-79.438;2022-10-26T15:05:03;22.10;48.50
33580;DHT22;19909;43.644;-79.438;2022-10-26T15:07:36;22.10;48.50
33580;DHT22;19909;43.644;-79.438;2022-10-26T15:10:04;22.10;48.50
33580;DHT22;19909;43.644;-79.438;2022-10-26T15:12:37;22.10;48.50
33580;DHT22;19909;43.644;-79.438;2022-10-26T15:17:57;22.00;48.40
33580;DHT22;19909;43.644;-79.438;2022-10-26T15:20:26;22.10;48.60
33580;DHT22;19909;43.644;-79.438;2022-10-26T15:23:01;22.10;48.50
33580;DHT22;19909;43.644;-79.438;2022-10-26T15:25:32;22.10;48.50
33580;DHT22;19909;43.644;-79.438;2022-10-26T15:28:31;22.10;48.50
33580;DHT22;19909;43.644;-79.438;2022-10-26T15:36:30;22.10;48.50
33580;DHT22;19909;43.644;-79.438;2022-10-26T15:38:58;22.10;48.50
33580;DHT22;19909;43.644;-79.438;2022-10-26T15:41:28;22.10;48.50
33580;DHT22;19909;43.644;-79.438;2022-10-26T15:43:56;22.10;48.50
33580;DHT22;19909;43.644;-79.438;2022-10-26T15:46:31;22.10;48.50
33580;DHT22;19909;43.644;-79.438;2022-10-26T15:49:05;22.00;48.50
33580;DHT22;19909;43.644;-79.438;2022-10-26T15:51:32;22.10;48.70
33580;DHT22;19909;43.644;-79.438;2022-10-26T15:54:03;22.10;48.60
33580;DHT22;19909;43.644;-79.438;2022-10-26T15:56:29;22.10;48.50
33580;DHT22;19909;43.644;-79.438;2022-10-26T15:58:57;22.10;48.50
33580;DHT22;19909;43.644;-79.438;2022-10-26T16:01:29;22.10;48.50
33580;DHT22;19909;43.644;-79.438;2022-10-26T16:03:56;22.10;48.60
33580;DHT22;19909;43.644;-79.438;2022-10-26T16:06:25;22.10;48.50
33580;DHT22;19909;43.644;-79.438;2022-10-26T16:08:54;22.10;48.50
33580;DHT22;19909;43.644;-79.438;2022-10-26T16:11:21;22.10;48.50
33580;DHT22;19909;43.644;-79.438;2022-10-26T16:13:48;22.10;48.50
33580;DHT22;19909;43.644;-79.438;2022-10-26T16:16:16;22.10;48.50
33580;DHT22;19909;43.644;-79.438;2022-10-26T16:18:43;22.10;48.50
33580;DHT22;19909;43.644;-79.438;2022-10-26T16:21:14;22.10;48.50
33580;DHT22;19909;43.644;-79.438;2022-10-26T16:23:41;22.10;48.50
33580;DHT22;19909;43.644;-79.438;2022-10-26T16:26:10;22.10;48.50
33580;DHT22;19909;43.644;-79.438;2022-10-26T16:28:37;22.10;48.50
33580;DHT22;19909;43.644;-79.438;2022-10-26T16:31:07;22.10;48.50
33580;DHT22;19909;43.644;-79.438;2022-10-26T16:33:33;22.10;48.60
33580;DHT22;19909;43.644;-79.438;2022-10-26T16:36:01;22.10;48.60
33580;DHT22;19909;43.644;-79.438;2022-10-26T16:38:30;22.10;48.60
33580;DHT22;19909;43.644;-79.438;2022-10-26T16:41:11;22.10;48.60
33580;DHT22;19909;43.644;-79.438;2022-10-26T16:43:42;22.10;48.50
33580;DHT22;19909;43.644;-79.438;2022-10-26T16:46:12;22.10;48.60
33580;DHT22;19909;43.644;-79.438;2022-10-26T16:48:40;22.10;48.60
33580;DHT22;19909;43.644;-79.438;2022-10-26T16:51:13;22.10;48.60
33580;DHT22;19909;43.644;-79.438;2022-10-26T16:53:40;22.10;48.60
33580;DHT22;19909;43.644;-79.438;2022-10-26T16:56:10;22.10;48.50
33580;DHT22;19909;43.644;-79.438;2022-10-26T16:58:37;22.10;48.60
33580;DHT22;19909;43.644;-79.438;2022-10-26T17:01:04;22.10;48.60
33580;DHT22;19909;43.644;-79.438;2022-10-26T17:03:31;22.10;48.70
33580;DHT22;19909;43.644;-79.438;2022-10-26T17:06:02;22.10;48.60
33580;DHT22;19909;43.644;-79.438;2022-10-26T17:08:31;22.10;48.50
33580;DHT22;19909;43.644;-79.438;2022-10-26T17:13:29;22.10;48.50
33580;DHT22;19909;43.644;-79.438;2022-10-26T17:16:03;22.10;48.60
33580;DHT22;19909;43.644;-79.438;2022-10-26T17:18:30;22.10;48.60
33580;DHT22;19909;43.644;-79.438;2022-10-26T17:20:57;22.10;48.60
33580;DHT22;19909;43.644;-79.438;2022-10-26T17:23:24;22.10;48.60
33580;DHT22;19909;43.644;-79.438;2022-10-26T17:25:51;22.10;48.60
33580;DHT22;19909;43.644;-79.438;2022-10-26T17:28:17;22.10;48.60
33580;DHT22;19909;43.644;-79.438;2022-10-26T17:30:43;22.10;48.60
33580;DHT22;19909;43.644;-79.438;2022-10-26T17:33:10;22.10;48.60
33580;DHT22;19909;43.644;-79.438;2022-10-26T17:35:37;22.10;48.60
33580;DHT22;19909;43.644;-79.438;2022-10-26T17:38:04;22.10;48.60
33580;DHT22;19909;43.644;-79.438;2022-10-26T17:40:31;22.10;48.50
33580;DHT22;19909;43.644;-79.438;2022-10-26T17:42:58;22.10;48.60
33580;DHT22;19909;43.644;-79.438;2022-10-26T17:45:25;22.10;48.50
33580;DHT22;19909;43.644;-79.438;2022-10-26T17:47:52;22.10;48.60
33580;DHT22;19909;43.644;-79.438;2022-10-26T17:50:18;22.10;48.60
33580;DHT22;19909;43.644;-79.438;2022-10-26T17:52:45;22.10;48.60